sensor_id;sensor_type;location;lat;lon;timestamp;P1;durP1;ratioP1;P2;durP2;ratioP2
55031;SDS011;40928;51.076;7.950;2024-01-30T00:01:24;9.75;;;5.95;;
55031;SDS011;40928;51.076;7.950;2024-01-30T00:03:50;14.65;;;6.88;;
55031;SDS011;40928;51.076;7.950;2024-01-30T00:06:18;11.43;;;6.75;;
55031;SDS011;40928;51.076;7.950;2024-01-30T00:08:46;10.68;;;6.05;;
55031;SDS011;40928;51.076;7.950;2024-01-30T00:11:14;11.88;;;5.57;;
55031;SDS011;40928;51.076;7.950;2024-01-30T00:13:40;13.27;;;6.82;;
55031;SDS011;40928;51.076;7.950;2024-01-30T00:16:05;13.80;;;6.70;;
55031;SDS011;40928;51.076;7.950;2024-01-30T00:18:31;12.95;;;5.93;;
55031;SDS011;40928;51.076;7.950;2024-01-30T00:20:57;12.57;;;6.68;;
55031;SDS011;40928;51.076;7.950;2024-01-30T00:23:22;16.48;;;6.45;;
55031;SDS011;40928;51.076;7.950;2024-01-30T00:25:48;14.68;;;6.78;;
55031;SDS011;40928;51.076;7.950;2024-01-30T00:28:13;19.30;;;6.93;;
55031;SDS011;40928;51.076;7.950;2024-01-30T00:30:39;12.13;;;6.00;;
55031;SDS011;40928;51.076;7.950;2024-01-30T00:33:04;18.58;;;6.65;;
55031;SDS011;40928;51.076;7.950;2024-01-30T00:35:30;11.27;;;5.70;;
55031;SDS011;40928;51.076;7.950;2024-01-30T00:37:55;13.18;;;7.07;;
55031;SDS011;40928;51.076;7.950;2024-01-30T00:40:20;13.77;;;6.20;;
55031;SDS011;40928;51.076;7.950;2024-01-30T00:42:46;10.60;;;6.18;;
55031;SDS011;40928;51.076;7.950;2024-01-30T00:45:14;11.43;;;6.57;;
55031;SDS011;40928;51.076;7.950;2024-01-30T00:47:40;15.00;;;6.18;;
55031;SDS011;40928;51.076;7.950;2024-01-30T00:50:06;12.48;;;7.20;;
55031;SDS011;40928;51.076;7.950;2024-01-30T00:52:32;9.07;;;5.88;;
55031;SDS011;40928;51.076;7.950;2024-01-30T00:54:58;12.63;;;7.03;;
55031;SDS011;40928;51.076;7.950;2024-01-30T00:57:24;12.13;;;6.45;;
55031;SDS011;40928;51.076;7.950;2024-01-30T00:59:50;16.70;;;7.25;;
55031;SDS011;40928;51.076;7.950;2024-01-30T01:02:15;15.85;;;6.35;;
55031;SDS011;40928;51.076;7.950;2024-01-30T01:04:42;17.17;;;6.47;;
55031;SDS011;40928;51.076;7.950;2024-01-30T01:07:09;14.60;;;7.03;;
55031;SDS011;40928;51.076;7.950;2024-01-30T01:09:35;15.13;;;6.60;;
55031;SDS011;40928;51.076;7.950;2024-01-30T01:12:01;10.23;;;6.38;;
55031;SDS011;40928;51.076;7.950;2024-01-30T01:14:27;14.05;;;6.85;;
55031;SDS011;40928;51.076;7.950;2024-01-30T01:16:52;10.40;;;6.20;;
55031;SDS011;40928;51.076;7.950;2024-01-30T01:19:18;11.35;;;6.40;;
55031;SDS011;40928;51.076;7.950;2024-01-30T01:21:43;18.77;;;6.28;;
55031;SDS011;40928;51.076;7.950;2024-01-30T01:24:09;10.52;;;6.18;;
55031;SDS011;40928;51.076;7.950;2024-01-30T01:26:34;15.50;;;6.78;;
55031;SDS011;40928;51.076;7.950;2024-01-30T01:29:00;14.02;;;6.45;;
55031;SDS011;40928;51.076;7.950;2024-01-30T01:31:25;14.65;;;6.97;;
55031;SDS011;40928;51.076;7.950;2024-01-30T01:33:54;9.32;;;5.18;;
55031;SDS011;40928;51.076;7.950;2024-01-30T01:36:20;9.10;;;5.95;;
55031;SDS011;40928;51.076;7.950;2024-01-30T01:38:46;9.80;;;5.55;;
55031;SDS011;40928;51.076;7.950;2024-01-30T01:41:11;13.90;;;7.35;;
55031;SDS011;40928;51.076;7.950;2024-01-30T01:43:37;14.75;;;5.93;;
55031;SDS011;40928;51.076;7.950;2024-01-30T01:46:04;14.35;;;6.28;;
55031;SDS011;40928;51.076;7.950;2024-01-30T01:48:31;12.50;;;5.90;;
55031;SDS011;40928;51.076;7.950;2024-01-30T01:50:57;9.20;;;4.70;;
55031;SDS011;40928;51.076;7.950;2024-01-30T01:53:24;13.70;;;6.03;;
55031;SDS011;40928;51.076;7.950;2024-01-30T01:55:50;11.75;;;5.35;;
55031;SDS011;40928;51.076;7.950;2024-01-30T01:58:18;17.67;;;6.30;;
55031;SDS011;40928;51.076;7.950;2024-01-30T02:00:45;13.55;;;5.18;;
55031;SDS011;40928;51.076;7.950;2024-01-30T02:03:11;12.35;;;5.97;;
55031;SDS011;40928;51.076;7.950;2024-01-30T02:05:39;9.32;;;5.68;;
55031;SDS011;40928;51.076;7.950;2024-01-30T02:08:07;10.38;;;5.47;;
55031;SDS011;40928;51.076;7.950;2024-01-30T02:10:33;13.40;;;5.40;;
55031;SDS011;40928;51.076;7.950;2024-01-30T02:12:59;11.88;;;6.40;;
55031;SDS011;40928;51.076;7.950;2024-01-30T02:15:25;12.48;;;6.45;;
55031;SDS011;40928;51.076;7.950;2024-01-30T02:17:50;8.63;;;5.10;;
55031;SDS011;40928;51.076;7.950;2024-01-30T02:20:16;10.73;;;5.60;;
55031;SDS011;40928;51.076;7.950;2024-01-30T02:22:41;9.68;;;4.80;;
55031;SDS011;40928;51.076;7.950;2024-01-30T02:25:08;12.68;;;5.53;;
55031;SDS011;40928;51.076;7.950;2024-01-30T02:27:34;14.63;;;5.75;;
55031;SDS011;40928;51.076;7.950;2024-01-30T02:29:59;12.10;;;5.55;;
55031;SDS011;40928;51.076;7.950;2024-01-30T02:32:25;10.88;;;5.57;;
55031;SDS011;40928;51.076;7.950;2024-01-30T02:34:50;13.10;;;6.00;;
55031;SDS011;40928;51.076;7.950;2024-01-30T02:37:16;12.13;;;6.00;;
55031;SDS011;40928;51.076;7.950;2024-01-30T02:39:42;11.70;;;6.00;;
55031;SDS011;40928;51.076;7.950;2024-01-30T02:42:07;17.52;;;7.15;;
55031;SDS011;40928;51.076;7.950;2024-01-30T02:44:33;9.23;;;5.30;;
55031;SDS011;40928;51.076;7.950;2024-01-30T02:46:58;9.68;;;5.65;;
55031;SDS011;40928;51.076;7.950;2024-01-30T02:49:24;13.68;;;6.82;;
55031;SDS011;40928;51.076;7.950;2024-01-30T02:51:50;12.27;;;5.30;;
55031;SDS011;40928;51.076;7.950;2024-01-30T02:54:16;11.90;;;5.80;;
55031;SDS011;40928;51.076;7.950;2024-01-30T02:56:42;15.07;;;5.78;;
55031;SDS011;40928;51.076;7.950;2024-01-30T02:59:07;16.58;;;6.15;;
55031;SDS011;40928;51.076;7.950;2024-01-30T03:01:33;13.38;;;6.88;;
55031;SDS011;40928;51.076;7.950;2024-01-30T03:03:58;14.10;;;6.72;;
55031;SDS011;40928;51.076;7.950;2024-01-30T03:06:23;12.82;;;6.05;;
55031;SDS011;40928;51.076;7.950;2024-01-30T03:08:49;11.45;;;6.55;;
55031;SDS011;40928;51.076;7.950;2024-01-30T03:11:15;10.98;;;6.53;;
55031;SDS011;40928;51.076;7.950;2024-01-30T03:13:40;10.43;;;6.10;;
55031;SDS011;40928;51.076;7.950;2024-01-30T03:16:06;12.20;;;6.85;;
55031;SDS011;40928;51.076;7.950;2024-01-30T03:18:31;10.98;;;6.15;;
55031;SDS011;40928;51.076;7.950;2024-01-30T03:20:57;13.05;;;5.70;;
55031;SDS011;40928;51.076;7.950;2024-01-30T03:23:22;15.63;;;5.65;;
55031;SDS011;40928;51.076;7.950;2024-01-30T03:25:48;11.95;;;5.63;;
55031;SDS011;40928;51.076;7.950;2024-01-30T03:28:13;17.80;;;6.85;;
55031;SDS011;40928;51.076;7.950;2024-01-30T03:30:39;13.15;;;5.07;;
55031;SDS011;40928;51.076;7.950;2024-01-30T03:33:07;9.65;;;5.35;;
55031;SDS011;40928;51.076;7.950;2024-01-30T03:35:34;11.57;;;5.55;;
55031;SDS011;40928;51.076;7.950;2024-01-30T03:38:00;9.40;;;5.32;;
55031;SDS011;40928;51.076;7.950;2024-01-30T03:40:26;10.77;;;6.63;;
55031;SDS011;40928;51.076;7.950;2024-01-30T03:42:51;11.60;;;6.00;;
55031;SDS011;40928;51.076;7.950;2024-01-30T03:45:17;12.88;;;5.28;;
55031;SDS011;40928;51.076;7.950;2024-01-30T03:47:44;12.25;;;6.18;;
55031;SDS011;40928;51.076;7.950;2024-01-30T03:50:10;13.88;;;5.10;;
55031;SDS011;40928;51.076;7.950;2024-01-30T03:52:35;7.78;;;5.07;;
55031;SDS011;40928;51.076;7.950;2024-01-30T03:55:01;9.88;;;5.63;;
55031;SDS011;40928;51.076;7.950;2024-01-30T03:57:26;12.40;;;6.03;;
55031;SDS011;40928;51.076;7.950;2024-01-30T03:59:52;8.80;;;5.43;;
55031;SDS011;40928;51.076;7.950;2024-01-30T04:02:18;9.38;;;4.82;;
55031;SDS011;40928;51.076;7.950;2024-01-30T04:04:44;11.95;;;5.68;;
55031;SDS011;40928;51.076;7.950;2024-01-30T04:07:09;10.30;;;5.15;;
55031;SDS011;40928;51.076;7.950;2024-01-30T04:09:35;9.32;;;5.55;;
55031;SDS011;40928;51.076;7.950;2024-01-30T04:12:00;7.30;;;4.43;;
55031;SDS011;40928;51.076;7.950;2024-01-30T04:14:28;12.48;;;5.22;;
55031;SDS011;40928;51.076;7.950;2024-01-30T04:16:53;12.32;;;4.95;;
55031;SDS011;40928;51.076;7.950;2024-01-30T04:19:19;9.15;;;6.00;;
55031;SDS011;40928;51.076;7.950;2024-01-30T04:21:44;15.18;;;6.30;;
55031;SDS011;40928;51.076;7.950;2024-01-30T04:24:10;7.63;;;4.25;;
55031;SDS011;40928;51.076;7.950;2024-01-30T04:26:35;10.73;;;5.97;;
55031;SDS011;40928;51.076;7.950;2024-01-30T04:29:02;13.25;;;6.88;;
55031;SDS011;40928;51.076;7.950;2024-01-30T04:31:27;10.75;;;5.57;;
55031;SDS011;40928;51.076;7.950;2024-01-30T04:33:53;12.15;;;5.72;;
55031;SDS011;40928;51.076;7.950;2024-01-30T04:36:19;14.57;;;6.40;;
55031;SDS011;40928;51.076;7.950;2024-01-30T04:38:44;14.82;;;6.18;;
55031;SDS011;40928;51.076;7.950;2024-01-30T04:41:09;11.98;;;5.90;;
55031;SDS011;40928;51.076;7.950;2024-01-30T04:43:35;9.05;;;5.60;;
55031;SDS011;40928;51.076;7.950;2024-01-30T04:46:01;15.15;;;6.13;;
55031;SDS011;40928;51.076;7.950;2024-01-30T04:48:27;17.48;;;6.30;;
55031;SDS011;40928;51.076;7.950;2024-01-30T04:50:52;13.43;;;6.25;;
55031;SDS011;40928;51.076;7.950;2024-01-30T04:53:18;15.05;;;6.28;;
55031;SDS011;40928;51.076;7.950;2024-01-30T04:55:44;10.48;;;6.30;;
55031;SDS011;40928;51.076;7.950;2024-01-30T04:58:09;10.45;;;5.07;;
55031;SDS011;40928;51.076;7.950;2024-01-30T05:00:35;13.32;;;5.90;;
55031;SDS011;40928;51.076;7.950;2024-01-30T05:03:00;9.82;;;5.40;;
55031;SDS011;40928;51.076;7.950;2024-01-30T05:05:26;10.98;;;5.13;;
55031;SDS011;40928;51.076;7.950;2024-01-30T05:07:51;18.85;;;6.15;;
55031;SDS011;40928;51.076;7.950;2024-01-30T05:10:17;8.65;;;4.82;;
55031;SDS011;40928;51.076;7.950;2024-01-30T05:12:43;9.13;;;5.07;;
55031;SDS011;40928;51.076;7.950;2024-01-30T05:15:08;14.07;;;5.82;;
55031;SDS011;40928;51.076;7.950;2024-01-30T05:17:34;15.18;;;4.85;;
55031;SDS011;40928;51.076;7.950;2024-01-30T05:20:00;8.60;;;5.35;;
55031;SDS011;40928;51.076;7.950;2024-01-30T05:22:25;11.18;;;4.60;;
55031;SDS011;40928;51.076;7.950;2024-01-30T05:24:51;10.32;;;4.47;;
55031;SDS011;40928;51.076;7.950;2024-01-30T05:27:16;10.35;;;4.65;;
55031;SDS011;40928;51.076;7.950;2024-01-30T05:29:42;16.02;;;6.18;;
55031;SDS011;40928;51.076;7.950;2024-01-30T05:32:07;6.35;;;3.53;;
55031;SDS011;40928;51.076;7.950;2024-01-30T05:34:33;10.70;;;5.25;;
55031;SDS011;40928;51.076;7.950;2024-01-30T05:36:58;8.45;;;4.80;;
55031;SDS011;40928;51.076;7.950;2024-01-30T05:39:24;14.60;;;5.45;;
55031;SDS011;40928;51.076;7.950;2024-01-30T05:41:49;8.23;;;4.32;;
55031;SDS011;40928;51.076;7.950;2024-01-30T05:44:15;6.93;;;4.18;;
55031;SDS011;40928;51.076;7.950;2024-01-30T05:46:41;10.50;;;5.00;;
55031;SDS011;40928;51.076;7.950;2024-01-30T05:49:07;8.60;;;4.93;;
55031;SDS011;40928;51.076;7.950;2024-01-30T05:51:32;12.52;;;4.68;;
55031;SDS011;40928;51.076;7.950;2024-01-30T05:53:58;10.65;;;5.65;;
55031;SDS011;40928;51.076;7.950;2024-01-30T05:56:23;12.00;;;5.75;;
55031;SDS011;40928;51.076;7.950;2024-01-30T05:58:49;14.38;;;5.70;;
55031;SDS011;40928;51.076;7.950;2024-01-30T06:01:15;9.88;;;4.90;;
55031;SDS011;40928;51.076;7.950;2024-01-30T06:03:41;11.07;;;5.82;;
55031;SDS011;40928;51.076;7.950;2024-01-30T06:06:08;10.02;;;4.85;;
55031;SDS011;40928;51.076;7.950;2024-01-30T06:08:34;10.75;;;4.70;;
55031;SDS011;40928;51.076;7.950;2024-01-30T06:10:59;9.02;;;4.97;;
55031;SDS011;40928;51.076;7.950;2024-01-30T06:13:26;11.68;;;5.50;;
55031;SDS011;40928;51.076;7.950;2024-01-30T06:15:52;13.90;;;5.72;;
55031;SDS011;40928;51.076;7.950;2024-01-30T06:18:18;9.75;;;5.35;;
55031;SDS011;40928;51.076;7.950;2024-01-30T06:20:44;13.02;;;5.40;;
55031;SDS011;40928;51.076;7.950;2024-01-30T06:23:12;9.77;;;5.60;;
55031;SDS011;40928;51.076;7.950;2024-01-30T06:25:40;9.65;;;5.05;;
55031;SDS011;40928;51.076;7.950;2024-01-30T06:28:05;10.20;;;5.68;;
55031;SDS011;40928;51.076;7.950;2024-01-30T06:30:31;11.27;;;6.35;;
55031;SDS011;40928;51.076;7.950;2024-01-30T06:32:57;11.20;;;6.22;;
55031;SDS011;40928;51.076;7.950;2024-01-30T06:35:22;13.98;;;5.20;;
55031;SDS011;40928;51.076;7.950;2024-01-30T06:37:48;13.57;;;5.13;;
55031;SDS011;40928;51.076;7.950;2024-01-30T06:40:14;11.68;;;5.55;;
55031;SDS011;40928;51.076;7.950;2024-01-30T06:42:40;10.30;;;4.75;;
55031;SDS011;40928;51.076;7.950;2024-01-30T06:45:05;8.57;;;4.68;;
55031;SDS011;40928;51.076;7.950;2024-01-30T06:47:31;12.90;;;5.65;;
55031;SDS011;40928;51.076;7.950;2024-01-30T06:49:57;12.15;;;5.75;;
55031;SDS011;40928;51.076;7.950;2024-01-30T06:52:22;14.43;;;6.07;;
55031;SDS011;40928;51.076;7.950;2024-01-30T06:54:48;10.55;;;5.05;;
55031;SDS011;40928;51.076;7.950;2024-01-30T06:57:13;10.50;;;5.70;;
55031;SDS011;40928;51.076;7.950;2024-01-30T06:59:39;10.00;;;5.63;;
55031;SDS011;40928;51.076;7.950;2024-01-30T07:02:11;9.43;;;5.28;;
55031;SDS011;40928;51.076;7.950;2024-01-30T07:04:37;11.82;;;5.68;;
55031;SDS011;40928;51.076;7.950;2024-01-30T07:07:04;13.57;;;5.35;;
55031;SDS011;40928;51.076;7.950;2024-01-30T07:09:30;9.77;;;4.97;;
55031;SDS011;40928;51.076;7.950;2024-01-30T07:11:56;12.52;;;5.28;;
55031;SDS011;40928;51.076;7.950;2024-01-30T07:14:23;10.45;;;5.32;;
55031;SDS011;40928;51.076;7.950;2024-01-30T07:16:49;13.18;;;5.57;;
55031;SDS011;40928;51.076;7.950;2024-01-30T07:19:15;9.82;;;5.50;;
55031;SDS011;40928;51.076;7.950;2024-01-30T07:21:41;12.02;;;5.78;;
55031;SDS011;40928;51.076;7.950;2024-01-30T07:24:06;14.52;;;6.43;;
55031;SDS011;40928;51.076;7.950;2024-01-30T07:26:32;8.40;;;4.60;;
55031;SDS011;40928;51.076;7.950;2024-01-30T07:28:57;10.35;;;5.03;;
55031;SDS011;40928;51.076;7.950;2024-01-30T07:31:23;12.98;;;6.18;;
55031;SDS011;40928;51.076;7.950;2024-01-30T07:33:49;10.02;;;5.93;;
55031;SDS011;40928;51.076;7.950;2024-01-30T07:36:14;10.95;;;4.90;;
55031;SDS011;40928;51.076;7.950;2024-01-30T07:38:39;10.98;;;5.18;;
55031;SDS011;40928;51.076;7.950;2024-01-30T07:41:05;9.23;;;5.22;;
55031;SDS011;40928;51.076;7.950;2024-01-30T07:43:31;9.15;;;5.70;;
55031;SDS011;40928;51.076;7.950;2024-01-30T07:45:56;9.23;;;5.03;;
55031;SDS011;40928;51.076;7.950;2024-01-30T07:48:22;9.80;;;5.03;;
55031;SDS011;40928;51.076;7.950;2024-01-30T07:50:47;9.15;;;4.78;;
55031;SDS011;40928;51.076;7.950;2024-01-30T07:53:13;11.20;;;5.60;;
55031;SDS011;40928;51.076;7.950;2024-01-30T07:55:38;11.00;;;5.28;;
55031;SDS011;40928;51.076;7.950;2024-01-30T07:58:04;14.00;;;5.07;;
55031;SDS011;40928;51.076;7.950;2024-01-30T08:00:29;13.52;;;4.88;;
55031;SDS011;40928;51.076;7.950;2024-01-30T08:02:55;8.75;;;3.97;;
55031;SDS011;40928;51.076;7.950;2024-01-30T08:05:21;11.00;;;6.03;;
55031;SDS011;40928;51.076;7.950;2024-01-30T08:07:49;10.07;;;5.10;;
55031;SDS011;40928;51.076;7.950;2024-01-30T08:10:15;10.02;;;4.88;;
55031;SDS011;40928;51.076;7.950;2024-01-30T08:12:43;14.27;;;5.40;;
55031;SDS011;40928;51.076;7.950;2024-01-30T08:15:08;12.52;;;5.65;;
55031;SDS011;40928;51.076;7.950;2024-01-30T08:17:34;9.15;;;5.10;;
55031;SDS011;40928;51.076;7.950;2024-01-30T08:20:00;7.50;;;4.55;;
55031;SDS011;40928;51.076;7.950;2024-01-30T08:22:25;10.13;;;4.72;;
55031;SDS011;40928;51.076;7.950;2024-01-30T08:24:51;8.75;;;4.50;;
55031;SDS011;40928;51.076;7.950;2024-01-30T08:27:16;11.63;;;5.55;;
55031;SDS011;40928;51.076;7.950;2024-01-30T08:29:42;7.97;;;4.65;;
55031;SDS011;40928;51.076;7.950;2024-01-30T08:32:07;12.38;;;5.30;;
55031;SDS011;40928;51.076;7.950;2024-01-30T08:34:33;13.25;;;5.32;;
55031;SDS011;40928;51.076;7.950;2024-01-30T08:36:58;11.00;;;4.55;;
55031;SDS011;40928;51.076;7.950;2024-01-30T08:39:24;8.65;;;5.18;;
55031;SDS011;40928;51.076;7.950;2024-01-30T08:41:49;13.18;;;5.53;;
55031;SDS011;40928;51.076;7.950;2024-01-30T08:44:15;11.50;;;5.45;;
55031;SDS011;40928;51.076;7.950;2024-01-30T08:46:42;7.65;;;4.47;;
55031;SDS011;40928;51.076;7.950;2024-01-30T08:49:10;9.15;;;4.40;;
55031;SDS011;40928;51.076;7.950;2024-01-30T08:51:35;11.38;;;5.43;;
55031;SDS011;40928;51.076;7.950;2024-01-30T08:54:02;10.48;;;5.15;;
55031;SDS011;40928;51.076;7.950;2024-01-30T08:56:28;9.20;;;5.07;;
55031;SDS011;40928;51.076;7.950;2024-01-30T08:58:53;12.48;;;5.07;;
55031;SDS011;40928;51.076;7.950;2024-01-30T09:01:19;10.93;;;4.88;;
55031;SDS011;40928;51.076;7.950;2024-01-30T09:03:44;11.25;;;5.57;;
55031;SDS011;40928;51.076;7.950;2024-01-30T09:06:12;9.55;;;5.15;;
55031;SDS011;40928;51.076;7.950;2024-01-30T09:08:37;13.05;;;5.80;;
55031;SDS011;40928;51.076;7.950;2024-01-30T09:11:13;10.68;;;5.20;;
55031;SDS011;40928;51.076;7.950;2024-01-30T09:13:39;8.23;;;4.95;;
55031;SDS011;40928;51.076;7.950;2024-01-30T09:16:05;16.75;;;5.68;;
55031;SDS011;40928;51.076;7.950;2024-01-30T09:18:31;8.80;;;4.85;;
55031;SDS011;40928;51.076;7.950;2024-01-30T09:20:57;15.77;;;5.38;;
55031;SDS011;40928;51.076;7.950;2024-01-30T09:23:23;7.68;;;4.72;;
55031;SDS011;40928;51.076;7.950;2024-01-30T09:25:48;10.82;;;5.28;;
55031;SDS011;40928;51.076;7.950;2024-01-30T09:28:14;9.88;;;4.80;;
55031;SDS011;40928;51.076;7.950;2024-01-30T09:30:39;11.98;;;4.10;;
55031;SDS011;40928;51.076;7.950;2024-01-30T09:33:06;12.20;;;4.93;;
55031;SDS011;40928;51.076;7.950;2024-01-30T09:35:32;7.28;;;3.85;;
55031;SDS011;40928;51.076;7.950;2024-01-30T09:37:57;11.82;;;4.75;;
55031;SDS011;40928;51.076;7.950;2024-01-30T09:40:23;9.30;;;4.43;;
55031;SDS011;40928;51.076;7.950;2024-01-30T09:42:52;11.82;;;4.60;;
55031;SDS011;40928;51.076;7.950;2024-01-30T09:45:19;11.23;;;4.50;;
55031;SDS011;40928;51.076;7.950;2024-01-30T09:47:45;14.40;;;4.50;;
55031;SDS011;40928;51.076;7.950;2024-01-30T09:50:15;11.07;;;4.72;;
55031;SDS011;40928;51.076;7.950;2024-01-30T09:52:42;9.85;;;4.72;;
55031;SDS011;40928;51.076;7.950;2024-01-30T09:55:09;11.15;;;5.25;;
55031;SDS011;40928;51.076;7.950;2024-01-30T09:57:35;10.55;;;4.57;;
55031;SDS011;40928;51.076;7.950;2024-01-30T10:00:01;15.43;;;6.13;;
55031;SDS011;40928;51.076;7.950;2024-01-30T10:02:38;8.23;;;4.70;;
55031;SDS011;40928;51.076;7.950;2024-01-30T10:05:04;6.68;;;4.43;;
55031;SDS011;40928;51.076;7.950;2024-01-30T10:07:30;11.00;;;4.82;;
55031;SDS011;40928;51.076;7.950;2024-01-30T10:09:56;11.43;;;4.03;;
55031;SDS011;40928;51.076;7.950;2024-01-30T10:12:22;15.43;;;5.50;;
55031;SDS011;40928;51.076;7.950;2024-01-30T10:14:48;7.75;;;3.83;;
55031;SDS011;40928;51.076;7.950;2024-01-30T10:17:13;10.35;;;4.63;;
55031;SDS011;40928;51.076;7.950;2024-01-30T10:19:39;10.77;;;4.55;;
55031;SDS011;40928;51.076;7.950;2024-01-30T10:22:05;12.63;;;4.85;;
55031;SDS011;40928;51.076;7.950;2024-01-30T10:24:31;11.43;;;4.53;;
55031;SDS011;40928;51.076;7.950;2024-01-30T10:26:58;11.70;;;4.10;;
55031;SDS011;40928;51.076;7.950;2024-01-30T10:29:24;7.45;;;4.78;;
55031;SDS011;40928;51.076;7.950;2024-01-30T10:32:00;11.32;;;4.10;;
55031;SDS011;40928;51.076;7.950;2024-01-30T10:34:28;9.73;;;4.05;;
55031;SDS011;40928;51.076;7.950;2024-01-30T10:39:40;9.63;;;3.88;;
55031;SDS011;40928;51.076;7.950;2024-01-30T10:42:13;11.48;;;4.20;;
55031;SDS011;40928;51.076;7.950;2024-01-30T10:47:18;7.15;;;3.97;;
55031;SDS011;40928;51.076;7.950;2024-01-30T10:49:50;9.43;;;4.90;;
55031;SDS011;40928;51.076;7.950;2024-01-30T10:52:17;13.95;;;4.88;;
55031;SDS011;40928;51.076;7.950;2024-01-30T10:54:44;10.25;;;4.40;;
55031;SDS011;40928;51.076;7.950;2024-01-30T10:57:10;16.42;;;5.13;;
55031;SDS011;40928;51.076;7.950;2024-01-30T10:59:37;9.18;;;4.82;;
55031;SDS011;40928;51.076;7.950;2024-01-30T11:02:04;11.30;;;4.93;;
55031;SDS011;40928;51.076;7.950;2024-01-30T11:04:37;7.55;;;4.00;;
55031;SDS011;40928;51.076;7.950;2024-01-30T11:07:16;9.85;;;4.65;;
55031;SDS011;40928;51.076;7.950;2024-01-30T11:09:50;11.05;;;4.90;;
55031;SDS011;40928;51.076;7.950;2024-01-30T11:12:28;6.82;;;4.20;;
55031;SDS011;40928;51.076;7.950;2024-01-30T11:20:16;7.13;;;4.40;;
55031;SDS011;40928;51.076;7.950;2024-01-30T11:22:48;11.32;;;4.65;;
55031;SDS011;40928;51.076;7.950;2024-01-30T11:25:16;7.15;;;4.35;;
55031;SDS011;40928;51.076;7.950;2024-01-30T11:27:43;9.35;;;4.55;;
55031;SDS011;40928;51.076;7.950;2024-01-30T11:30:09;10.18;;;4.88;;
55031;SDS011;40928;51.076;7.950;2024-01-30T11:32:36;9.20;;;4.10;;
55031;SDS011;40928;51.076;7.950;2024-01-30T11:35:05;10.93;;;4.20;;
55031;SDS011;40928;51.076;7.950;2024-01-30T11:37:31;12.63;;;5.20;;
55031;SDS011;40928;51.076;7.950;2024-01-30T11:40:00;7.60;;;4.30;;
55031;SDS011;40928;51.076;7.950;2024-01-30T11:42:29;10.80;;;4.88;;
55031;SDS011;40928;51.076;7.950;2024-01-30T11:44:55;7.63;;;4.10;;
55031;SDS011;40928;51.076;7.950;2024-01-30T11:47:21;9.52;;;4.80;;
55031;SDS011;40928;51.076;7.950;2024-01-30T11:49:47;8.95;;;4.80;;
55031;SDS011;40928;51.076;7.950;2024-01-30T11:52:13;9.10;;;3.83;;
55031;SDS011;40928;51.076;7.950;2024-01-30T11:54:39;11.40;;;4.50;;
55031;SDS011;40928;51.076;7.950;2024-01-30T11:57:05;10.00;;;5.38;;
55031;SDS011;40928;51.076;7.950;2024-01-30T11:59:30;8.60;;;4.78;;
55031;SDS011;40928;51.076;7.950;2024-01-30T12:01:56;13.27;;;5.25;;
55031;SDS011;40928;51.076;7.950;2024-01-30T12:04:22;6.78;;;4.10;;
55031;SDS011;40928;51.076;7.950;2024-01-30T12:06:50;11.15;;;4.03;;
55031;SDS011;40928;51.076;7.950;2024-01-30T12:09:16;8.90;;;4.00;;
55031;SDS011;40928;51.076;7.950;2024-01-30T12:11:45;7.63;;;4.45;;
55031;SDS011;40928;51.076;7.950;2024-01-30T12:14:12;11.40;;;4.75;;
55031;SDS011;40928;51.076;7.950;2024-01-30T12:16:38;8.18;;;5.00;;
55031;SDS011;40928;51.076;7.950;2024-01-30T12:19:03;10.00;;;5.22;;
55031;SDS011;40928;51.076;7.950;2024-01-30T12:21:29;9.40;;;4.03;;
55031;SDS011;40928;51.076;7.950;2024-01-30T12:23:56;9.75;;;4.82;;
55031;SDS011;40928;51.076;7.950;2024-01-30T12:26:23;11.52;;;4.60;;
55031;SDS011;40928;51.076;7.950;2024-01-30T12:28:50;9.95;;;4.50;;
55031;SDS011;40928;51.076;7.950;2024-01-30T12:31:16;8.77;;;4.03;;
55031;SDS011;40928;51.076;7.950;2024-01-30T12:33:41;10.68;;;4.85;;
55031;SDS011;40928;51.076;7.950;2024-01-30T12:36:07;7.57;;;4.32;;
55031;SDS011;40928;51.076;7.950;2024-01-30T12:38:33;10.48;;;4.65;;
55031;SDS011;40928;51.076;7.950;2024-01-30T12:40:58;9.40;;;3.92;;
55031;SDS011;40928;51.076;7.950;2024-01-30T12:43:24;10.23;;;4.55;;
55031;SDS011;40928;51.076;7.950;2024-01-30T12:45:50;8.27;;;4.22;;
55031;SDS011;40928;51.076;7.950;2024-01-30T12:48:15;11.90;;;5.55;;
55031;SDS011;40928;51.076;7.950;2024-01-30T12:50:41;14.40;;;5.00;;
55031;SDS011;40928;51.076;7.950;2024-01-30T12:53:07;8.57;;;4.32;;
55031;SDS011;40928;51.076;7.950;2024-01-30T12:55:34;10.00;;;3.75;;
55031;SDS011;40928;51.076;7.950;2024-01-30T12:57:59;17.33;;;4.72;;
55031;SDS011;40928;51.076;7.950;2024-01-30T13:00:25;10.02;;;4.40;;
55031;SDS011;40928;51.076;7.950;2024-01-30T13:02:50;16.77;;;4.95;;
55031;SDS011;40928;51.076;7.950;2024-01-30T13:05:16;10.70;;;4.88;;
55031;SDS011;40928;51.076;7.950;2024-01-30T13:07:42;9.90;;;4.20;;
55031;SDS011;40928;51.076;7.950;2024-01-30T13:10:08;13.75;;;4.50;;
55031;SDS011;40928;51.076;7.950;2024-01-30T13:12:33;9.23;;;4.13;;
55031;SDS011;40928;51.076;7.950;2024-01-30T13:14:59;12.20;;;5.45;;
55031;SDS011;40928;51.076;7.950;2024-01-30T13:17:29;9.00;;;3.67;;
55031;SDS011;40928;51.076;7.950;2024-01-30T13:19:55;11.02;;;3.80;;
55031;SDS011;40928;51.076;7.950;2024-01-30T13:22:20;5.47;;;3.40;;
55031;SDS011;40928;51.076;7.950;2024-01-30T13:24:47;7.78;;;4.40;;
55031;SDS011;40928;51.076;7.950;2024-01-30T13:27:12;9.40;;;3.63;;
55031;SDS011;40928;51.076;7.950;2024-01-30T13:29:38;13.20;;;4.30;;
55031;SDS011;40928;51.076;7.950;2024-01-30T13:32:04;10.18;;;3.78;;
55031;SDS011;40928;51.076;7.950;2024-01-30T13:34:29;8.82;;;4.30;;
55031;SDS011;40928;51.076;7.950;2024-01-30T13:36:55;11.35;;;4.50;;
55031;SDS011;40928;51.076;7.950;2024-01-30T13:39:20;13.52;;;3.80;;
55031;SDS011;40928;51.076;7.950;2024-01-30T13:41:46;13.02;;;4.15;;
55031;SDS011;40928;51.076;7.950;2024-01-30T13:44:13;8.57;;;4.45;;
55031;SDS011;40928;51.076;7.950;2024-01-30T13:46:39;10.05;;;4.20;;
55031;SDS011;40928;51.076;7.950;2024-01-30T13:49:04;7.85;;;4.10;;
55031;SDS011;40928;51.076;7.950;2024-01-30T13:51:30;10.90;;;4.25;;
55031;SDS011;40928;51.076;7.950;2024-01-30T13:53:55;6.10;;;3.22;;
55031;SDS011;40928;51.076;7.950;2024-01-30T13:56:21;10.27;;;4.55;;
55031;SDS011;40928;51.076;7.950;2024-01-30T13:58:50;11.23;;;4.28;;
55031;SDS011;40928;51.076;7.950;2024-01-30T14:01:16;8.13;;;3.45;;
55031;SDS011;40928;51.076;7.950;2024-01-30T14:03:41;8.13;;;4.10;;
55031;SDS011;40928;51.076;7.950;2024-01-30T14:06:07;6.90;;;4.00;;
55031;SDS011;40928;51.076;7.950;2024-01-30T14:08:33;8.27;;;4.60;;
55031;SDS011;40928;51.076;7.950;2024-01-30T14:10:58;6.13;;;3.90;;
55031;SDS011;40928;51.076;7.950;2024-01-30T14:13:24;8.02;;;4.25;;
55031;SDS011;40928;51.076;7.950;2024-01-30T14:15:51;11.00;;;4.90;;
55031;SDS011;40928;51.076;7.950;2024-01-30T14:18:17;12.20;;;5.30;;
55031;SDS011;40928;51.076;7.950;2024-01-30T14:20:43;15.60;;;7.50;;
55031;SDS011;40928;51.076;7.950;2024-01-30T14:23:08;14.60;;;6.53;;
55031;SDS011;40928;51.076;7.950;2024-01-30T14:25:34;13.02;;;6.68;;
55031;SDS011;40928;51.076;7.950;2024-01-30T14:27:59;15.45;;;5.78;;
55031;SDS011;40928;51.076;7.950;2024-01-30T14:30:25;15.70;;;6.43;;
55031;SDS011;40928;51.076;7.950;2024-01-30T14:32:50;14.23;;;6.55;;
55031;SDS011;40928;51.076;7.950;2024-01-30T14:35:16;13.80;;;6.45;;
55031;SDS011;40928;51.076;7.950;2024-01-30T14:37:41;14.65;;;5.75;;
55031;SDS011;40928;51.076;7.950;2024-01-30T14:40:07;11.77;;;5.47;;
55031;SDS011;40928;51.076;7.950;2024-01-30T14:42:33;12.60;;;5.45;;